< < Back
Terminal Aerodrome Forecast


Current Version              Previous Versions:   1  2  3  4  5  6  7  8  9  

Terminal Aerodrome Forecast

603
FTUS42 KFFC 031136
TAFMCN
TAF
KMCN 031136Z 0312/0412 00000KT 4SM BR SKC
     FM031700 20006KT P6SM FEW210
     FM040200 00000KT P6SM FEW240=

Latest METAR

840
SAUS80 KWBC 040300 RRA
MTRMCN
METAR KMCN 040253Z AUTO 00000KT 10SM CLR 16/13 A3019 RMK AO2 SLP218
T01560128 53017 TSNO


USA.gov is the U.S. government's official web portal to all federal, state and local government web resources and services.